Lincoln City, Oregon
Current Conditions -  °F | °C
As of 2:35 AM on Sunday 26 Oct 2014 (Local Time) from KONP Reporting Station
Light Rain Light Rain  
Wind Chill: 54°   Ceiling: 2400
Heat Index: 54°   Visibility: 5mi
Dew Point: 46°   Wind: 16mph
Humidity: 77%   Direction: 210°SSW
Pressure: 30.04"   Gusts: 32mph
Location:  44.93°N, 124.01°W
Report Text: KONP 260935Z AUTO 21014G28KT 5SM -RA SCT010 BKN024 BKN041 12/08 A3004 RMK AO2 P0002
Loading
Personal Weather Stations






























Interactive Weather Map New forecast layout! Learn more

10-Day Weather Forecast

Advertisements
Track Severe Weather on mobile